METAR Data
IDs: Format: Raw Decoded Include TAF

Data at: 0113 UTC 01 Mar 2021

KOXD 010055Z AUTO 24007KT 10SM SCT013 SCT020 OVC024 14/14 A2979 RMK AO2 T01400140